Schneifelwetter: Wetterstation Hallschlag, 537 m . NN
Wetterdaten: Samstag, 18.12.2010
Datum Zeit Temp. A. Feuchte A. Luftdruck Regen Wind Richtung Richtung Sonnenschein Helligkeit T Regen Taupunkt Windchill
18.12.2010 00:01 -8,8 C 96 % 993 hPa 0,0 l/m 19,1 km/h (3 Bft) SW45 215 0 min 0 lux 0,00 min -9,3 C -20,5 C
18.12.2010 00:17 -8,3 C 96 % 993 hPa 0,0 l/m 18,5 km/h (3 Bft) S-SW45 195 0 min 0 lux 0,00 min -8,8 C -19,4 C
18.12.2010 00:32 -8,1 C 96 % 993 hPa 0,0 l/m 15,9 km/h (3 Bft) SW45 230 0 min 0 lux 0,00 min -8,6 C -17,5 C
18.12.2010 00:47 -8,3 C 95 % 992 hPa 0,0 l/m 15,7 km/h (3 Bft) SW22.5 230 0 min 0 lux 0,00 min -9,0 C -17,6 C
18.12.2010 01:02 -8,5 C 95 % 992 hPa 0,0 l/m 8,8 km/h (2 Bft) S22.5 190 0 min 0 lux 0,00 min -9,2 C -11,5 C
18.12.2010 01:17 -8,7 C 95 % 992 hPa 0,0 l/m 9,7 km/h (2 Bft) W-SW45 240 0 min 0 lux 0,00 min -9,4 C -12,7 C
18.12.2010 01:32 -8,4 C 95 % 992 hPa 0,0 l/m 16,5 km/h (3 Bft) SW45 235 0 min 0 lux 0,00 min -9,1 C -18,2 C
18.12.2010 01:47 -8,1 C 96 % 992 hPa 0,0 l/m 10,3 km/h (2 Bft) S22.5 190 0 min 0 lux 0,00 min -8,6 C -12,7 C
18.12.2010 02:02 -8,0 C 96 % 992 hPa 0,0 l/m 4,7 km/h (1 Bft) S 180 0 min 0 lux 0,00 min -8,5 C -8,0 C
18.12.2010 02:17 -7,9 C 96 % 992 hPa 0,3 l/m 3,4 km/h (1 Bft) S 180 0 min 0 lux 15,00 min -8,4 C -7,9 C
18.12.2010 02:32 -7,7 C 96 % 992 hPa 0,3 l/m 8,9 km/h (2 Bft) S22.5 170 0 min 0 lux 15,00 min -8,2 C -10,8 C
18.12.2010 02:47 -7,6 C 96 % 992 hPa 0,3 l/m 9,6 km/h (2 Bft) S-SO22.5 150 0 min 0 lux 15,00 min -8,1 C -11,4 C
18.12.2010 03:02 -7,6 C 96 % 992 hPa 0,0 l/m 8,5 km/h (2 Bft) SO22.5 145 0 min 0 lux 0,00 min -8,1 C -10,2 C
18.12.2010 03:17 -7,6 C 96 % 992 hPa 0,3 l/m 4,2 km/h (1 Bft) SO 135 0 min 0 lux 15,00 min -8,1 C -7,6 C
18.12.2010 03:32 -7,7 C 95 % 992 hPa 0,0 l/m 4,4 km/h (1 Bft) S-SO45 160 0 min 0 lux 0,00 min -8,4 C -7,7 C
18.12.2010 03:47 -7,7 C 95 % 992 hPa 0,0 l/m 6,5 km/h (2 Bft) SW45 220 0 min 0 lux 0,00 min -8,4 C -7,8 C
18.12.2010 04:02 -7,7 C 95 % 992 hPa 0,0 l/m 0,6 km/h (0 Bft) S 180 0 min 0 lux 0,00 min -8,4 C -7,7 C
18.12.2010 04:17 -7,7 C 95 % 992 hPa 0,0 l/m 0,1 km/h (0 Bft) S 180 0 min 0 lux 0,00 min -8,4 C -7,7 C
18.12.2010 04:32 -7,7 C 95 % 992 hPa 0,0 l/m 2,8 km/h (1 Bft) S 180 0 min 0 lux 0,00 min -8,4 C -7,7 C
18.12.2010 04:47 -7,8 C 95 % 992 hPa 0,0 l/m 0,0 km/h (0 Bft) S 180 0 min 0 lux 0,00 min -8,5 C -7,8 C
18.12.2010 05:02 -7,9 C 95 % 992 hPa 0,0 l/m 0,0 km/h (0 Bft) S 180 0 min 0 lux 0,00 min -8,6 C -7,9 C
18.12.2010 05:17 -7,9 C 95 % 992 hPa 0,0 l/m 0,0 km/h (0 Bft) S 180 0 min 0 lux 0,00 min -8,6 C -7,9 C
18.12.2010 05:32 -8,4 C 95 % 992 hPa 0,0 l/m 0,0 km/h (0 Bft) S 180 0 min 0 lux 0,00 min -9,1 C -8,4 C
18.12.2010 05:47 -9,3 C 94 % 992 hPa 0,0 l/m 3,4 km/h (1 Bft) S 180 0 min 0 lux 0,00 min -10,1 C -9,3 C
18.12.2010 06:02 -9,8 C 94 % 993 hPa 0,0 l/m 4,3 km/h (1 Bft) S 180 0 min 0 lux 0,00 min -10,6 C -9,8 C
18.12.2010 06:17 -9,6 C 95 % 993 hPa 0,0 l/m 5,4 km/h (1 Bft) SW45 235 0 min 0 lux 0,00 min -10,2 C -9,6 C
18.12.2010 06:32 -9,3 C 95 % 993 hPa 0,0 l/m 7,9 km/h (2 Bft) W-SW22.5 250 0 min 0 lux 0,00 min -9,9 C -11,3 C
18.12.2010 06:47 -8,9 C 96 % 993 hPa 0,0 l/m 5,8 km/h (2 Bft) W-SW 245 0 min 0 lux 0,00 min -9,4 C -8,9 C
18.12.2010 07:02 -8,7 C 96 % 993 hPa 0,0 l/m 8,4 km/h (2 Bft) W-SW45 240 0 min 0 lux 0,00 min -9,2 C -11,3 C
18.12.2010 07:17 -8,9 C 95 % 993 hPa 0,0 l/m 8,3 km/h (2 Bft) W-SW22.5 250 0 min 0 lux 0,00 min -9,6 C -11,4 C
18.12.2010 07:32 -8,9 C 96 % 993 hPa 0,0 l/m 14,2 km/h (3 Bft) W45 270 0 min 0 lux 0,00 min -9,4 C -17,1 C
18.12.2010 07:47 -8,7 C 96 % 993 hPa 0,0 l/m 14,5 km/h (3 Bft) W22.5 260 0 min 0 lux 0,00 min -9,2 C -17,1 C
18.12.2010 08:02 -8,6 C 96 % 993 hPa 0,0 l/m 13,1 km/h (3 Bft) W22.5 265 0 min 0 lux 0,00 min -9,1 C -15,9 C
18.12.2010 08:17 -8,6 C 96 % 994 hPa 0,0 l/m 7,7 km/h (2 Bft) W-SW22.5 240 0 min 91 lux 0,00 min -9,1 C -10,3 C
18.12.2010 08:32 -8,5 C 96 % 994 hPa 0,0 l/m 15,9 km/h (3 Bft) W22.5 260 0 min 385 lux 0,00 min -9,0 C -17,9 C
18.12.2010 08:47 -8,3 C 96 % 994 hPa 0,0 l/m 15,8 km/h (3 Bft) W-SW22.5 250 0 min 803 lux 0,00 min -8,8 C -17,6 C
18.12.2010 09:02 -8,2 C 96 % 994 hPa 0,0 l/m 17,3 km/h (3 Bft) W-SW22.5 255 0 min 1,51 klux 0,00 min -8,7 C -18,5 C
18.12.2010 09:17 -8,0 C 96 % 995 hPa 0,0 l/m 15,1 km/h (3 Bft) W-SW22.5 250 0 min 2,35 klux 0,00 min -8,5 C -16,7 C
18.12.2010 09:32 -7,9 C 95 % 995 hPa 0,0 l/m 20,0 km/h (4 Bft) W22.5 265 0 min 4,06 klux 0,00 min -8,6 C -19,8 C
18.12.2010 09:47 -7,8 C 95 % 995 hPa 0,0 l/m 15,6 km/h (3 Bft) SW45 230 0 min 5,08 klux 0,00 min -8,5 C -16,9 C
18.12.2010 10:01 -7,5 C 96 % 995 hPa 0,0 l/m 12,1 km/h (2 Bft) SW22.5 225 0 min 9,1 klux 0,00 min -8,0 C -13,7 C
18.12.2010 10:17 -7,3 C 95 % 995 hPa 0,0 l/m 15,4 km/h (3 Bft) S-SW22.5 210 0 min 14,1 klux 0,00 min -8,0 C -16,1 C
18.12.2010 10:32 -7,1 C 94 % 995 hPa 0,0 l/m 22,0 km/h (4 Bft) W-SW45 240 0 min 11,8 klux 0,00 min -7,9 C -19,9 C
18.12.2010 10:47 -7,0 C 94 % 995 hPa 0,0 l/m 22,1 km/h (4 Bft) W-SW22.5 255 0 min 12,8 klux 0,00 min -7,8 C -19,8 C
18.12.2010 11:02 -6,8 C 93 % 995 hPa 0,0 l/m 22,9 km/h (4 Bft) W-SW22.5 255 0 min 36,3 klux 0,00 min -7,7 C -19,9 C
18.12.2010 11:16 -6,5 C 93 % 995 hPa 0,0 l/m 17,8 km/h (3 Bft) W-SW22.5 250 0 min 29,9 klux 0,00 min -7,4 C -16,7 C
18.12.2010 11:31 -6,9 C 92 % 995 hPa 0,0 l/m 17,8 km/h (3 Bft) SW45 230 0 min 32,4 klux 0,00 min -8,0 C -17,2 C
18.12.2010 11:46 -7,0 C 92 % 995 hPa 0,0 l/m 14,5 km/h (3 Bft) W-SW22.5 250 0 min 29,5 klux 0,00 min -8,1 C -15,1 C
18.12.2010 12:02 -6,8 C 91 % 995 hPa 0,0 l/m 16,0 km/h (3 Bft) SW45 230 0 min 41,4 klux 0,00 min -8,0 C -15,9 C
18.12.2010 12:17 -6,7 C 91 % 996 hPa 0,0 l/m 15,3 km/h (3 Bft) W-SW22.5 250 0 min 36,7 klux 0,00 min -7,9 C -15,3 C
18.12.2010 12:32 -6,9 C 91 % 995 hPa 0,0 l/m 10,6 km/h (2 Bft) W-SW22.5 250 0 min 43,4 klux 0,00 min -8,1 C -11,7 C
18.12.2010 12:47 -6,7 C 91 % 996 hPa 0,0 l/m 12,3 km/h (3 Bft) W-SW22.5 245 0 min 42,9 klux 0,00 min -7,9 C -13,0 C
18.12.2010 13:01 -5,6 C 92 % 996 hPa 0,0 l/m 10,9 km/h (2 Bft) W-SW22.5 245 14 min 59,7 klux 0,00 min -6,7 C -10,5 C
18.12.2010 13:16 -5,9 C 90 % 996 hPa 0,0 l/m 12,2 km/h (2 Bft) W-SW22.5 255 0 min 47,6 klux 0,00 min -7,3 C -12,0 C
18.12.2010 13:31 -6,4 C 90 % 996 hPa 0,0 l/m 0,0 km/h (0 Bft) W-SW22.5 240 0 min 38,8 klux 0,00 min -7,8 C -6,4 C
18.12.2010 13:47 -6,7 C 90 % 996 hPa 0,0 l/m 0,0 km/h (0 Bft) SW22.5 230 0 min 38,4 klux 0,00 min -8,1 C -6,7 C
18.12.2010 14:02 -7,0 C 90 % 996 hPa 0,0 l/m 0,0 km/h (0 Bft) W-SW22.5 245 0 min 35,4 klux 0,00 min -8,4 C -7,0 C
18.12.2010 14:17 -6,8 C 90 % 996 hPa 0,0 l/m 0,0 km/h (0 Bft) W-SW22.5 240 0 min 19,4 klux 0,00 min -8,2 C -6,8 C
18.12.2010 14:32 -6,7 C 90 % 996 hPa 0,0 l/m 0,0 km/h (0 Bft) S-SW45 210 0 min 14,5 klux 0,00 min -8,1 C -6,7 C
18.12.2010 14:46 -6,6 C 90 % 996 hPa 0,0 l/m 0,0 km/h (0 Bft) S-SW22.5 195 0 min 14,9 klux 0,00 min -8,0 C -6,6 C
18.12.2010 15:01 -6,6 C 90 % 996 hPa 0,0 l/m 0,0 km/h (0 Bft) SW 215 0 min 28,6 klux 0,00 min -8,0 C -6,6 C
18.12.2010 15:17 -6,8 C 90 % 996 hPa 0,0 l/m 0,0 km/h (0 Bft) SW 215 0 min 19,0 klux 0,00 min -8,2 C -6,8 C
18.12.2010 15:32 -7,1 C 91 % 996 hPa 0,0 l/m 0,0 km/h (0 Bft) SW 215 0 min 5,25 klux 0,00 min -8,3 C -7,1 C
18.12.2010 15:47 -7,2 C 92 % 996 hPa 0,0 l/m 16,8 km/h (3 Bft) S22.5 170 0 min 2,78 klux 0,00 min -8,3 C -17,0 C
18.12.2010 16:02 -7,4 C 92 % 996 hPa 0,0 l/m 16,5 km/h (3 Bft) S-SO 160 0 min 3,19 klux 0,00 min -8,5 C -17,0 C
18.12.2010 16:16 -7,6 C 92 % 996 hPa 0,0 l/m 14,5 km/h (3 Bft) S-SO22.5 165 0 min 1,87 klux 0,00 min -8,7 C -15,8 C
18.12.2010 16:31 -7,6 C 93 % 996 hPa 0,0 l/m 14,2 km/h (3 Bft) S22.5 180 0 min 767 lux 0,00 min -8,5 C -15,6 C
18.12.2010 16:46 -7,5 C 94 % 996 hPa 0,0 l/m 14,3 km/h (3 Bft) S45 190 0 min 364 lux 0,00 min -8,3 C -15,5 C
18.12.2010 17:02 -7,3 C 94 % 996 hPa 0,0 l/m 21,3 km/h (4 Bft) S45 180 0 min 101 lux 0,00 min -8,1 C -19,8 C
18.12.2010 17:17 -7,2 C 95 % 996 hPa 0,0 l/m 15,6 km/h (3 Bft) S22.5 170 0 min 19 lux 0,00 min -7,9 C -16,1 C
18.12.2010 17:32 -7,2 C 96 % 996 hPa 0,0 l/m 18,8 km/h (3 Bft) S22.5 180 0 min 6 lux 0,00 min -7,7 C -18,2 C
18.12.2010 17:47 -7,1 C 96 % 995 hPa 0,0 l/m 22,1 km/h (4 Bft) S-SO22.5 165 0 min 1 lux 0,00 min -7,6 C -19,9 C
18.12.2010 18:01 -6,8 C 97 % 995 hPa 0,0 l/m 25,1 km/h (4 Bft) S22.5 175 0 min 0 lux 0,00 min -7,2 C -21,0 C
18.12.2010 18:16 -6,7 C 97 % 996 hPa 0,0 l/m 23,0 km/h (4 Bft) S22.5 170 0 min 0 lux 0,00 min -7,1 C -19,9 C
18.12.2010 18:32 -6,7 C 97 % 996 hPa 0,0 l/m 15,0 km/h (3 Bft) S22.5 190 0 min 0 lux 0,00 min -7,1 C -15,1 C
18.12.2010 18:47 -6,5 C 97 % 996 hPa 0,0 l/m 14,0 km/h (3 Bft) S22.5 170 0 min 0 lux 0,00 min -6,9 C -14,1 C
18.12.2010 19:02 -6,3 C 97 % 996 hPa 0,0 l/m 16,5 km/h (3 Bft) S22.5 180 0 min 0 lux 0,00 min -6,7 C -15,6 C
18.12.2010 19:17 -6,3 C 97 % 995 hPa 0,0 l/m 17,3 km/h (3 Bft) S22.5 180 0 min 0 lux 0,00 min -6,7 C -16,2 C
18.12.2010 19:31 -6,2 C 97 % 995 hPa 0,0 l/m 18,4 km/h (3 Bft) S45 185 0 min 0 lux 0,00 min -6,6 C -16,7 C
18.12.2010 19:46 -6,1 C 97 % 995 hPa 0,0 l/m 12,4 km/h (3 Bft) S22.5 185 0 min 0 lux 0,00 min -6,5 C -12,4 C
18.12.2010 20:01 -6,1 C 97 % 995 hPa 0,0 l/m 13,6 km/h (3 Bft) S22.5 170 0 min 0 lux 0,00 min -6,5 C -13,3 C
18.12.2010 20:17 -6,1 C 97 % 995 hPa 0,0 l/m 12,8 km/h (3 Bft) S22.5 170 0 min 0 lux 0,00 min -6,5 C -12,7 C
18.12.2010 20:32 -6,0 C 97 % 995 hPa 0,0 l/m 6,5 km/h (2 Bft) S22.5 175 0 min 0 lux 0,00 min -6,4 C -6,1 C
18.12.2010 20:47 -5,9 C 97 % 995 hPa 0,0 l/m 15,5 km/h (3 Bft) S-SO45 165 0 min 0 lux 0,00 min -6,3 C -14,5 C
18.12.2010 21:02 -5,9 C 97 % 995 hPa 0,0 l/m 13,3 km/h (3 Bft) S-SO22.5 165 0 min 0 lux 0,00 min -6,3 C -12,9 C
18.12.2010 21:16 -5,8 C 97 % 995 hPa 0,0 l/m 20,5 km/h (4 Bft) S-SO22.5 165 0 min 0 lux 0,00 min -6,2 C -17,4 C
18.12.2010 21:31 -5,7 C 97 % 994 hPa 0,6 l/m 17,9 km/h (3 Bft) S-SO22.5 160 0 min 0 lux 15,00 min -6,1 C -15,8 C
18.12.2010 21:46 -5,6 C 97 % 994 hPa 0,3 l/m 17,3 km/h (3 Bft) S-SO22.5 160 0 min 0 lux 15,00 min -6,0 C -15,3 C
18.12.2010 22:02 -5,5 C 97 % 994 hPa 0,0 l/m 21,5 km/h (4 Bft) S-SO22.5 160 0 min 0 lux 0,00 min -5,9 C -17,5 C
18.12.2010 22:17 -5,5 C 97 % 994 hPa 0,0 l/m 17,0 km/h (3 Bft) S-SO22.5 160 0 min 0 lux 0,00 min -5,9 C -15,0 C
18.12.2010 22:32 -5,5 C 97 % 993 hPa 0,0 l/m 22,6 km/h (4 Bft) S45 175 0 min 0 lux 0,00 min -5,9 C -18,1 C
18.12.2010 22:47 -5,5 C 97 % 993 hPa 0,0 l/m 16,9 km/h (3 Bft) S-SO22.5 160 0 min 0 lux 0,00 min -5,9 C -14,9 C
18.12.2010 23:01 -5,4 C 97 % 993 hPa 0,0 l/m 18,6 km/h (3 Bft) S-SO22.5 160 0 min 0 lux 0,00 min -5,8 C -15,8 C
18.12.2010 23:16 -5,4 C 96 % 993 hPa 0,0 l/m 18,8 km/h (3 Bft) S67.5 170 0 min 0 lux 0,00 min -5,9 C -15,9 C
18.12.2010 23:32 -5,4 C 96 % 993 hPa 0,0 l/m 14,9 km/h (3 Bft) S22.5 170 0 min 0 lux 0,00 min -5,9 C -13,5 C
18.12.2010 23:47 -5,4 C 96 % 992 hPa 0,0 l/m 15,1 km/h (3 Bft) S-SO22.5 160 0 min 0 lux 0,00 min -5,9 C -13,6 C
_ Min-Zeit 06:02 13:16 00:47 - 04:47 - - - - - 06:02 18:01
Minimum _ -9,8 C 90 % 992 hPa - 0,0 km/h (0 Bft) - - - - - -10,6 C -21,0 C
_ Max-Zeit 23:01 18:01 12:17 21:31 18:01 - - 13:01 13:01 02:17 23:01 20:32
Maximum _ -5,4 C 97 % 996 hPa 0,6 l/m 25,1 km/h
S (4 Bft)
- - 14 min 59,7 klux 15,00 min -5,8 C -6,1 C
Durchschnitt _ -7,2 C 95 % 994 hPa #2,1 l/m 11,9 km/h (2 Bft) S - #14 min. 7,14 klux #1:30 h -8,0 C -13,5 C